Mead, Colorado
Current Conditions -  °F | °C
As of 4:35 PM on Tuesday 25 Nov 2014 (Local Time) from KLMO Reporting Station
Clear Clear  
Wind Chill: 43°   Ceiling: Unl
Heat Index: 47°   Visibility: 10mi
Dew Point: 18°   Wind: 10mph
Humidity: 31%   Direction: 110°ESE
Pressure: 29.9"   Gusts: NA
Location:  40.23°N, 105°W
Report Text: KLMO 252335Z AUTO 11009KT 10SM CLR 09/M08 A2990 RMK AO2 T00851077
Loading
Personal Weather Stations






























Interactive Weather Map New forecast layout! Learn more

10-Day Weather Forecast

Advertisements
Track Severe Weather on mobile